sensor_id;sensor_type;location;lat;lon;timestamp;P1;durP1;ratioP1;P2;durP2;ratioP2
19384;SDS011;9828;54.122;17.974;2022-10-16T00:02:24;41.23;;;25.90;;
19384;SDS011;9828;54.122;17.974;2022-10-16T00:07:45;40.60;;;24.87;;
19384;SDS011;9828;54.122;17.974;2022-10-16T00:13:07;40.47;;;26.47;;
19384;SDS011;9828;54.122;17.974;2022-10-16T00:18:29;38.73;;;25.07;;
19384;SDS011;9828;54.122;17.974;2022-10-16T00:23:55;40.37;;;25.27;;
19384;SDS011;9828;54.122;17.974;2022-10-16T00:29:19;39.23;;;25.60;;
19384;SDS011;9828;54.122;17.974;2022-10-16T00:34:41;38.20;;;23.73;;
19384;SDS011;9828;54.122;17.974;2022-10-16T00:40:02;31.93;;;22.97;;
19384;SDS011;9828;54.122;17.974;2022-10-16T00:45:23;33.17;;;22.40;;
19384;SDS011;9828;54.122;17.974;2022-10-16T00:50:45;29.52;;;21.88;;
19384;SDS011;9828;54.122;17.974;2022-10-16T00:56:06;31.30;;;22.30;;
19384;SDS011;9828;54.122;17.974;2022-10-16T01:01:27;33.83;;;22.17;;
19384;SDS011;9828;54.122;17.974;2022-10-16T01:12:42;28.00;;;19.97;;
19384;SDS011;9828;54.122;17.974;2022-10-16T01:18:34;27.27;;;20.33;;
19384;SDS011;9828;54.122;17.974;2022-10-16T01:24:06;29.73;;;19.93;;
19384;SDS011;9828;54.122;17.974;2022-10-16T01:35:11;32.10;;;21.00;;
19384;SDS011;9828;54.122;17.974;2022-10-16T01:40:39;26.63;;;20.43;;
19384;SDS011;9828;54.122;17.974;2022-10-16T01:46:06;23.60;;;18.70;;
19384;SDS011;9828;54.122;17.974;2022-10-16T01:51:30;24.30;;;17.47;;
19384;SDS011;9828;54.122;17.974;2022-10-16T01:56:52;24.20;;;18.53;;
19384;SDS011;9828;54.122;17.974;2022-10-16T02:02:16;24.80;;;17.93;;
19384;SDS011;9828;54.122;17.974;2022-10-16T02:07:40;27.53;;;19.77;;
19384;SDS011;9828;54.122;17.974;2022-10-16T02:13:06;24.20;;;18.80;;
19384;SDS011;9828;54.122;17.974;2022-10-16T02:18:38;26.47;;;20.13;;
19384;SDS011;9828;54.122;17.974;2022-10-16T02:29:55;29.17;;;19.77;;
19384;SDS011;9828;54.122;17.974;2022-10-16T02:35:38;26.80;;;19.93;;
19384;SDS011;9828;54.122;17.974;2022-10-16T02:41:01;26.73;;;18.27;;
19384;SDS011;9828;54.122;17.974;2022-10-16T02:46:22;23.23;;;18.27;;
19384;SDS011;9828;54.122;17.974;2022-10-16T02:51:43;24.10;;;18.57;;
19384;SDS011;9828;54.122;17.974;2022-10-16T02:57:05;30.47;;;20.57;;
19384;SDS011;9828;54.122;17.974;2022-10-16T03:02:26;25.23;;;19.93;;
19384;SDS011;9828;54.122;17.974;2022-10-16T03:07:47;25.03;;;18.30;;
19384;SDS011;9828;54.122;17.974;2022-10-16T03:13:09;32.93;;;23.53;;
19384;SDS011;9828;54.122;17.974;2022-10-16T03:18:30;30.97;;;22.77;;
19384;SDS011;9828;54.122;17.974;2022-10-16T03:23:51;28.73;;;22.20;;
19384;SDS011;9828;54.122;17.974;2022-10-16T03:29:13;28.83;;;22.63;;
19384;SDS011;9828;54.122;17.974;2022-10-16T03:34:34;27.53;;;21.37;;
19384;SDS011;9828;54.122;17.974;2022-10-16T03:39:56;28.27;;;19.93;;
19384;SDS011;9828;54.122;17.974;2022-10-16T03:45:17;29.10;;;22.67;;
19384;SDS011;9828;54.122;17.974;2022-10-16T03:50:38;27.83;;;19.97;;
19384;SDS011;9828;54.122;17.974;2022-10-16T03:56:00;29.07;;;22.97;;
19384;SDS011;9828;54.122;17.974;2022-10-16T04:01:21;31.43;;;24.00;;
19384;SDS011;9828;54.122;17.974;2022-10-16T04:06:43;30.93;;;20.93;;
19384;SDS011;9828;54.122;17.974;2022-10-16T04:12:04;32.17;;;24.37;;
19384;SDS011;9828;54.122;17.974;2022-10-16T04:17:25;33.07;;;25.30;;
19384;SDS011;9828;54.122;17.974;2022-10-16T04:22:46;37.17;;;25.80;;
19384;SDS011;9828;54.122;17.974;2022-10-16T04:28:07;30.30;;;23.50;;
19384;SDS011;9828;54.122;17.974;2022-10-16T04:33:29;35.17;;;25.83;;
19384;SDS011;9828;54.122;17.974;2022-10-16T04:38:50;33.87;;;24.70;;
19384;SDS011;9828;54.122;17.974;2022-10-16T04:44:11;35.17;;;26.17;;
19384;SDS011;9828;54.122;17.974;2022-10-16T04:49:33;36.93;;;28.00;;
19384;SDS011;9828;54.122;17.974;2022-10-16T04:54:54;41.87;;;29.77;;
19384;SDS011;9828;54.122;17.974;2022-10-16T05:00:16;35.37;;;28.57;;
19384;SDS011;9828;54.122;17.974;2022-10-16T05:05:41;37.50;;;28.33;;
19384;SDS011;9828;54.122;17.974;2022-10-16T05:11:04;40.73;;;28.03;;
19384;SDS011;9828;54.122;17.974;2022-10-16T05:16:25;35.97;;;27.23;;
19384;SDS011;9828;54.122;17.974;2022-10-16T05:21:47;53.07;;;34.67;;
19384;SDS011;9828;54.122;17.974;2022-10-16T05:27:08;59.23;;;40.77;;
19384;SDS011;9828;54.122;17.974;2022-10-16T05:32:31;47.37;;;34.30;;
19384;SDS011;9828;54.122;17.974;2022-10-16T05:37:52;42.00;;;31.50;;
19384;SDS011;9828;54.122;17.974;2022-10-16T05:43:14;45.13;;;31.63;;
19384;SDS011;9828;54.122;17.974;2022-10-16T05:48:35;44.97;;;32.43;;
19384;SDS011;9828;54.122;17.974;2022-10-16T05:53:57;45.70;;;31.70;;
19384;SDS011;9828;54.122;17.974;2022-10-16T05:59:18;45.53;;;31.07;;
19384;SDS011;9828;54.122;17.974;2022-10-16T06:04:39;40.63;;;31.33;;
19384;SDS011;9828;54.122;17.974;2022-10-16T06:10:00;38.83;;;29.73;;
19384;SDS011;9828;54.122;17.974;2022-10-16T06:15:22;42.20;;;31.77;;
19384;SDS011;9828;54.122;17.974;2022-10-16T06:20:44;38.80;;;29.67;;
19384;SDS011;9828;54.122;17.974;2022-10-16T06:26:06;41.53;;;29.13;;
19384;SDS011;9828;54.122;17.974;2022-10-16T06:31:31;40.40;;;29.97;;
19384;SDS011;9828;54.122;17.974;2022-10-16T06:36:53;39.93;;;30.47;;
19384;SDS011;9828;54.122;17.974;2022-10-16T06:42:15;45.47;;;31.97;;
19384;SDS011;9828;54.122;17.974;2022-10-16T06:47:36;41.90;;;30.43;;
19384;SDS011;9828;54.122;17.974;2022-10-16T06:52:58;38.30;;;26.97;;
19384;SDS011;9828;54.122;17.974;2022-10-16T06:58:20;44.97;;;31.20;;
19384;SDS011;9828;54.122;17.974;2022-10-16T07:03:42;40.27;;;30.20;;
19384;SDS011;9828;54.122;17.974;2022-10-16T07:09:08;45.60;;;31.47;;
19384;SDS011;9828;54.122;17.974;2022-10-16T07:14:30;42.57;;;31.53;;
19384;SDS011;9828;54.122;17.974;2022-10-16T07:19:51;49.40;;;32.47;;
19384;SDS011;9828;54.122;17.974;2022-10-16T07:25:13;41.30;;;30.30;;
19384;SDS011;9828;54.122;17.974;2022-10-16T07:30:35;36.37;;;27.77;;
19384;SDS011;9828;54.122;17.974;2022-10-16T07:35:57;41.77;;;29.57;;
19384;SDS011;9828;54.122;17.974;2022-10-16T07:41:19;42.00;;;29.80;;
19384;SDS011;9828;54.122;17.974;2022-10-16T07:46:40;46.57;;;29.40;;
19384;SDS011;9828;54.122;17.974;2022-10-16T07:52:01;36.13;;;27.47;;
19384;SDS011;9828;54.122;17.974;2022-10-16T07:57:23;40.30;;;26.73;;
19384;SDS011;9828;54.122;17.974;2022-10-16T08:02:44;36.63;;;25.77;;
19384;SDS011;9828;54.122;17.974;2022-10-16T08:08:10;39.10;;;27.90;;
19384;SDS011;9828;54.122;17.974;2022-10-16T08:13:34;33.20;;;25.17;;
19384;SDS011;9828;54.122;17.974;2022-10-16T08:18:56;35.57;;;26.63;;
19384;SDS011;9828;54.122;17.974;2022-10-16T08:24:17;39.37;;;26.53;;
19384;SDS011;9828;54.122;17.974;2022-10-16T08:29:38;37.67;;;27.63;;
19384;SDS011;9828;54.122;17.974;2022-10-16T08:35:00;36.83;;;26.90;;
19384;SDS011;9828;54.122;17.974;2022-10-16T08:46:02;37.00;;;26.00;;
19384;SDS011;9828;54.122;17.974;2022-10-16T08:51:41;29.30;;;23.00;;
19384;SDS011;9828;54.122;17.974;2022-10-16T08:57:11;31.03;;;24.10;;
19384;SDS011;9828;54.122;17.974;2022-10-16T09:02:37;30.03;;;23.13;;
19384;SDS011;9828;54.122;17.974;2022-10-16T09:08:30;25.10;;;21.80;;
19384;SDS011;9828;54.122;17.974;2022-10-16T09:13:50;29.80;;;21.97;;
19384;SDS011;9828;54.122;17.974;2022-10-16T09:19:33;25.75;;;22.75;;
19384;SDS011;9828;54.122;17.974;2022-10-16T09:25:00;31.33;;;23.87;;
19384;SDS011;9828;54.122;17.974;2022-10-16T09:30:31;27.13;;;22.63;;
19384;SDS011;9828;54.122;17.974;2022-10-16T09:35:53;25.17;;;19.67;;
19384;SDS011;9828;54.122;17.974;2022-10-16T09:46:36;23.20;;;19.60;;
19384;SDS011;9828;54.122;17.974;2022-10-16T09:52:18;28.83;;;23.40;;
19384;SDS011;9828;54.122;17.974;2022-10-16T09:57:51;25.27;;;20.48;;
19384;SDS011;9828;54.122;17.974;2022-10-16T10:03:12;22.17;;;19.42;;
19384;SDS011;9828;54.122;17.974;2022-10-16T10:08:34;21.83;;;19.17;;
19384;SDS011;9828;54.122;17.974;2022-10-16T10:14:03;28.77;;;22.88;;
19384;SDS011;9828;54.122;17.974;2022-10-16T10:19:26;24.00;;;19.80;;
19384;SDS011;9828;54.122;17.974;2022-10-16T10:24:55;23.83;;;17.85;;
19384;SDS011;9828;54.122;17.974;2022-10-16T11:08:45;12.35;;;10.40;;
19384;SDS011;9828;54.122;17.974;2022-10-16T11:14:17;14.93;;;10.48;;
19384;SDS011;9828;54.122;17.974;2022-10-16T11:19:48;15.43;;;11.13;;
19384;SDS011;9828;54.122;17.974;2022-10-16T11:30:52;17.08;;;10.68;;
19384;SDS011;9828;54.122;17.974;2022-10-16T11:42:18;13.05;;;9.18;;
19384;SDS011;9828;54.122;17.974;2022-10-16T11:48:12;10.73;;;8.77;;
19384;SDS011;9828;54.122;17.974;2022-10-16T12:10:46;15.98;;;10.13;;
19384;SDS011;9828;54.122;17.974;2022-10-16T12:21:32;8.18;;;7.13;;
19384;SDS011;9828;54.122;17.974;2022-10-16T12:26:53;12.35;;;8.20;;
19384;SDS011;9828;54.122;17.974;2022-10-16T12:32:34;9.85;;;7.88;;
19384;SDS011;9828;54.122;17.974;2022-10-16T12:38:12;8.55;;;7.03;;
19384;SDS011;9828;54.122;17.974;2022-10-16T12:43:41;9.18;;;7.80;;
19384;SDS011;9828;54.122;17.974;2022-10-16T12:54:37;9.07;;;6.85;;
19384;SDS011;9828;54.122;17.974;2022-10-16T13:05:29;8.40;;;6.53;;
19384;SDS011;9828;54.122;17.974;2022-10-16T13:28:08;11.65;;;8.02;;
19384;SDS011;9828;54.122;17.974;2022-10-16T13:33:40;10.55;;;7.38;;
19384;SDS011;9828;54.122;17.974;2022-10-16T13:44:51;7.28;;;6.45;;
19384;SDS011;9828;54.122;17.974;2022-10-16T13:50:16;8.20;;;7.40;;
19384;SDS011;9828;54.122;17.974;2022-10-16T13:55:38;10.50;;;7.75;;
19384;SDS011;9828;54.122;17.974;2022-10-16T14:01:01;9.55;;;8.60;;
19384;SDS011;9828;54.122;17.974;2022-10-16T14:06:26;14.68;;;10.20;;
19384;SDS011;9828;54.122;17.974;2022-10-16T14:11:51;14.45;;;9.07;;
19384;SDS011;9828;54.122;17.974;2022-10-16T14:17:20;10.52;;;7.57;;
19384;SDS011;9828;54.122;17.974;2022-10-16T14:22:45;10.10;;;9.05;;
19384;SDS011;9828;54.122;17.974;2022-10-16T14:33:38;8.52;;;6.95;;
19384;SDS011;9828;54.122;17.974;2022-10-16T14:39:07;8.30;;;6.32;;
19384;SDS011;9828;54.122;17.974;2022-10-16T14:44:38;8.00;;;6.82;;
19384;SDS011;9828;54.122;17.974;2022-10-16T14:50:01;7.65;;;6.85;;
19384;SDS011;9828;54.122;17.974;2022-10-16T14:55:23;8.35;;;7.35;;
19384;SDS011;9828;54.122;17.974;2022-10-16T15:00:45;9.55;;;8.02;;
19384;SDS011;9828;54.122;17.974;2022-10-16T15:06:10;9.48;;;7.43;;
19384;SDS011;9828;54.122;17.974;2022-10-16T15:11:35;12.02;;;9.43;;
19384;SDS011;9828;54.122;17.974;2022-10-16T15:16:57;22.92;;;15.07;;
19384;SDS011;9828;54.122;17.974;2022-10-16T15:22:18;23.73;;;13.55;;
19384;SDS011;9828;54.122;17.974;2022-10-16T15:27:40;12.18;;;9.63;;
19384;SDS011;9828;54.122;17.974;2022-10-16T15:33:02;14.20;;;9.45;;
19384;SDS011;9828;54.122;17.974;2022-10-16T15:38:24;13.98;;;10.20;;
19384;SDS011;9828;54.122;17.974;2022-10-16T15:43:47;13.68;;;11.40;;
19384;SDS011;9828;54.122;17.974;2022-10-16T15:49:09;13.60;;;11.25;;
19384;SDS011;9828;54.122;17.974;2022-10-16T15:54:31;12.27;;;10.73;;
19384;SDS011;9828;54.122;17.974;2022-10-16T15:59:52;20.45;;;13.48;;
19384;SDS011;9828;54.122;17.974;2022-10-16T16:05:15;22.50;;;13.60;;
19384;SDS011;9828;54.122;17.974;2022-10-16T16:10:36;30.77;;;24.92;;
19384;SDS011;9828;54.122;17.974;2022-10-16T16:15:57;27.83;;;23.17;;
19384;SDS011;9828;54.122;17.974;2022-10-16T16:21:19;22.67;;;17.52;;
19384;SDS011;9828;54.122;17.974;2022-10-16T16:26:40;22.42;;;15.57;;
19384;SDS011;9828;54.122;17.974;2022-10-16T16:32:03;26.35;;;16.00;;
19384;SDS011;9828;54.122;17.974;2022-10-16T16:37:25;27.30;;;18.42;;
19384;SDS011;9828;54.122;17.974;2022-10-16T16:42:47;33.35;;;18.88;;
19384;SDS011;9828;54.122;17.974;2022-10-16T16:48:09;25.00;;;16.88;;
19384;SDS011;9828;54.122;17.974;2022-10-16T16:53:30;22.05;;;13.93;;
19384;SDS011;9828;54.122;17.974;2022-10-16T16:58:55;20.85;;;13.05;;
19384;SDS011;9828;54.122;17.974;2022-10-16T17:04:16;22.27;;;13.67;;
19384;SDS011;9828;54.122;17.974;2022-10-16T17:09:39;23.95;;;17.65;;
19384;SDS011;9828;54.122;17.974;2022-10-16T17:15:00;23.63;;;16.07;;
19384;SDS011;9828;54.122;17.974;2022-10-16T17:20:22;21.10;;;14.88;;
19384;SDS011;9828;54.122;17.974;2022-10-16T17:25:43;22.90;;;14.85;;
19384;SDS011;9828;54.122;17.974;2022-10-16T17:31:13;24.07;;;15.90;;
19384;SDS011;9828;54.122;17.974;2022-10-16T17:36:35;25.13;;;17.10;;
19384;SDS011;9828;54.122;17.974;2022-10-16T17:41:58;35.20;;;21.60;;
19384;SDS011;9828;54.122;17.974;2022-10-16T17:47:19;37.33;;;23.87;;
19384;SDS011;9828;54.122;17.974;2022-10-16T17:52:43;39.73;;;25.60;;
19384;SDS011;9828;54.122;17.974;2022-10-16T17:58:04;42.20;;;27.03;;
19384;SDS011;9828;54.122;17.974;2022-10-16T18:03:26;44.47;;;28.17;;
19384;SDS011;9828;54.122;17.974;2022-10-16T18:08:47;47.70;;;27.97;;
19384;SDS011;9828;54.122;17.974;2022-10-16T18:14:13;43.97;;;27.10;;
19384;SDS011;9828;54.122;17.974;2022-10-16T18:19:35;46.63;;;28.50;;
19384;SDS011;9828;54.122;17.974;2022-10-16T18:24:56;71.23;;;38.40;;
19384;SDS011;9828;54.122;17.974;2022-10-16T18:30:18;73.23;;;40.07;;
19384;SDS011;9828;54.122;17.974;2022-10-16T18:35:39;69.37;;;38.83;;
19384;SDS011;9828;54.122;17.974;2022-10-16T18:41:01;65.23;;;35.80;;
19384;SDS011;9828;54.122;17.974;2022-10-16T18:46:25;55.60;;;34.07;;
19384;SDS011;9828;54.122;17.974;2022-10-16T18:51:46;47.27;;;29.53;;
19384;SDS011;9828;54.122;17.974;2022-10-16T18:57:10;42.50;;;23.20;;
19384;SDS011;9828;54.122;17.974;2022-10-16T19:02:31;45.80;;;21.00;;
19384;SDS011;9828;54.122;17.974;2022-10-16T19:07:54;55.23;;;22.70;;
19384;SDS011;9828;54.122;17.974;2022-10-16T19:13:15;43.73;;;21.67;;
19384;SDS011;9828;54.122;17.974;2022-10-16T19:18:36;49.50;;;25.73;;
19384;SDS011;9828;54.122;17.974;2022-10-16T19:23:59;50.70;;;27.27;;
19384;SDS011;9828;54.122;17.974;2022-10-16T19:29:21;39.27;;;27.13;;
19384;SDS011;9828;54.122;17.974;2022-10-16T19:34:42;33.80;;;22.20;;
19384;SDS011;9828;54.122;17.974;2022-10-16T19:40:05;27.10;;;20.93;;
19384;SDS011;9828;54.122;17.974;2022-10-16T19:45:27;53.13;;;28.33;;
19384;SDS011;9828;54.122;17.974;2022-10-16T19:50:48;60.07;;;33.00;;
19384;SDS011;9828;54.122;17.974;2022-10-16T19:56:15;35.67;;;23.10;;
19384;SDS011;9828;54.122;17.974;2022-10-16T20:01:37;32.50;;;19.57;;
19384;SDS011;9828;54.122;17.974;2022-10-16T20:07:00;31.63;;;16.43;;
19384;SDS011;9828;54.122;17.974;2022-10-16T20:12:22;25.80;;;13.37;;
19384;SDS011;9828;54.122;17.974;2022-10-16T20:17:43;29.83;;;14.63;;
19384;SDS011;9828;54.122;17.974;2022-10-16T20:23:05;37.73;;;19.13;;
19384;SDS011;9828;54.122;17.974;2022-10-16T20:28:26;36.93;;;19.13;;
19384;SDS011;9828;54.122;17.974;2022-10-16T20:33:52;55.73;;;27.97;;
19384;SDS011;9828;54.122;17.974;2022-10-16T20:39:14;50.23;;;25.20;;
19384;SDS011;9828;54.122;17.974;2022-10-16T20:44:35;47.50;;;24.10;;
19384;SDS011;9828;54.122;17.974;2022-10-16T20:49:57;45.97;;;22.97;;
19384;SDS011;9828;54.122;17.974;2022-10-16T20:55:18;40.77;;;22.40;;
19384;SDS011;9828;54.122;17.974;2022-10-16T21:00:39;47.17;;;21.83;;
19384;SDS011;9828;54.122;17.974;2022-10-16T21:06:02;45.93;;;20.23;;
19384;SDS011;9828;54.122;17.974;2022-10-16T21:11:26;35.97;;;16.47;;
19384;SDS011;9828;54.122;17.974;2022-10-16T21:16:48;34.97;;;17.73;;
19384;SDS011;9828;54.122;17.974;2022-10-16T21:22:09;46.60;;;23.20;;
19384;SDS011;9828;54.122;17.974;2022-10-16T21:27:38;39.07;;;20.30;;
19384;SDS011;9828;54.122;17.974;2022-10-16T21:32:59;34.00;;;17.73;;
19384;SDS011;9828;54.122;17.974;2022-10-16T21:38:21;23.80;;;14.80;;
19384;SDS011;9828;54.122;17.974;2022-10-16T21:43:43;21.60;;;12.00;;
19384;SDS011;9828;54.122;17.974;2022-10-16T21:49:05;17.97;;;10.63;;
19384;SDS011;9828;54.122;17.974;2022-10-16T21:54:30;17.97;;;10.80;;
19384;SDS011;9828;54.122;17.974;2022-10-16T21:59:51;23.17;;;12.43;;
19384;SDS011;9828;54.122;17.974;2022-10-16T22:05:12;16.93;;;10.03;;
19384;SDS011;9828;54.122;17.974;2022-10-16T22:10:34;15.30;;;9.47;;
19384;SDS011;9828;54.122;17.974;2022-10-16T22:15:55;22.20;;;10.07;;
19384;SDS011;9828;54.122;17.974;2022-10-16T22:21:16;16.03;;;9.17;;
19384;SDS011;9828;54.122;17.974;2022-10-16T22:26:38;18.70;;;8.27;;
19384;SDS011;9828;54.122;17.974;2022-10-16T22:31:59;9.77;;;6.30;;
19384;SDS011;9828;54.122;17.974;2022-10-16T22:37:21;7.97;;;5.23;;
19384;SDS011;9828;54.122;17.974;2022-10-16T22:42:42;5.70;;;4.00;;
19384;SDS011;9828;54.122;17.974;2022-10-16T22:48:03;4.30;;;3.73;;
19384;SDS011;9828;54.122;17.974;2022-10-16T22:53:25;4.30;;;3.60;;
19384;SDS011;9828;54.122;17.974;2022-10-16T22:58:47;4.37;;;3.90;;
19384;SDS011;9828;54.122;17.974;2022-10-16T23:04:08;4.23;;;3.57;;
19384;SDS011;9828;54.122;17.974;2022-10-16T23:09:30;5.33;;;4.60;;
19384;SDS011;9828;54.122;17.974;2022-10-16T23:14:51;4.50;;;3.97;;
19384;SDS011;9828;54.122;17.974;2022-10-16T23:20:13;5.53;;;4.43;;
19384;SDS011;9828;54.122;17.974;2022-10-16T23:25:34;5.47;;;4.03;;
19384;SDS011;9828;54.122;17.974;2022-10-16T23:30:56;6.63;;;4.17;;
19384;SDS011;9828;54.122;17.974;2022-10-16T23:36:18;4.93;;;4.30;;
19384;SDS011;9828;54.122;17.974;2022-10-16T23:41:40;6.97;;;5.43;;
19384;SDS011;9828;54.122;17.974;2022-10-16T23:47:01;8.83;;;5.70;;
19384;SDS011;9828;54.122;17.974;2022-10-16T23:52:23;8.20;;;5.10;;
19384;SDS011;9828;54.122;17.974;2022-10-16T23:57:44;8.23;;;5.50;;
